sensor_id;sensor_type;location;lat;lon;timestamp;pressure;altitude;pressure_sealevel;temperature;humidity
49541;BME280;35432;43.566;1.398;2023-04-08T00:02:16;99946.06;;;11.18;51.20
49541;BME280;35432;43.566;1.398;2023-04-08T00:04:42;99947.84;;;11.16;50.72
49541;BME280;35432;43.566;1.398;2023-04-08T00:07:07;99956.69;;;11.12;50.72
49541;BME280;35432;43.566;1.398;2023-04-08T00:09:33;99959.31;;;11.12;50.89
49541;BME280;35432;43.566;1.398;2023-04-08T00:11:58;99958.47;;;11.10;51.20
49541;BME280;35432;43.566;1.398;2023-04-08T00:14:23;99957.63;;;11.10;50.79
49541;BME280;35432;43.566;1.398;2023-04-08T00:16:49;99960.25;;;11.08;50.88
49541;BME280;35432;43.566;1.398;2023-04-08T00:19:14;99962.03;;;11.06;51.13
49541;BME280;35432;43.566;1.398;2023-04-08T00:21:40;99957.72;;;10.99;51.30
49541;BME280;35432;43.566;1.398;2023-04-08T00:24:05;99955.94;;;10.99;50.88
49541;BME280;35432;43.566;1.398;2023-04-08T00:26:31;99954.25;;;10.95;51.18
49541;BME280;35432;43.566;1.398;2023-04-08T00:28:57;99960.44;;;10.89;51.49
49541;BME280;35432;43.566;1.398;2023-04-08T00:31:22;99958.69;;;10.88;51.65
49541;BME280;35432;43.566;1.398;2023-04-08T00:33:48;99957.03;;;10.81;51.57
49541;BME280;35432;43.566;1.398;2023-04-08T00:36:13;99958.84;;;10.76;51.68
49541;BME280;35432;43.566;1.398;2023-04-08T00:38:38;99957.94;;;10.77;51.75
49541;BME280;35432;43.566;1.398;2023-04-08T00:41:04;99963.25;;;10.74;51.67
49541;BME280;35432;43.566;1.398;2023-04-08T00:43:30;99957.97;;;10.71;52.08
49541;BME280;35432;43.566;1.398;2023-04-08T00:45:55;99958.91;;;10.67;51.75
49541;BME280;35432;43.566;1.398;2023-04-08T00:48:21;99965.94;;;10.65;51.85
49541;BME280;35432;43.566;1.398;2023-04-08T00:50:46;99965.13;;;10.61;52.11
49541;BME280;35432;43.566;1.398;2023-04-08T00:53:17;99967.75;;;10.59;52.65
49541;BME280;35432;43.566;1.398;2023-04-08T00:55:42;99965.13;;;10.59;51.96
49541;BME280;35432;43.566;1.398;2023-04-08T00:58:08;99967.81;;;10.53;52.51
49541;BME280;35432;43.566;1.398;2023-04-08T01:00:35;99964.34;;;10.48;52.66
49541;BME280;35432;43.566;1.398;2023-04-08T01:03:17;99972.28;;;10.43;52.79
49541;BME280;35432;43.566;1.398;2023-04-08T01:08:34;99963.53;;;10.37;52.58
49541;BME280;35432;43.566;1.398;2023-04-08T01:11:02;99972.31;;;10.36;52.67
49541;BME280;35432;43.566;1.398;2023-04-08T01:13:33;99967.03;;;10.39;52.65
49541;BME280;35432;43.566;1.398;2023-04-08T01:16:00;99960.91;;;10.37;52.65
49541;BME280;35432;43.566;1.398;2023-04-08T01:18:28;99952.13;;;10.33;52.86
49541;BME280;35432;43.566;1.398;2023-04-08T01:20:54;99956.53;;;10.31;52.87
49541;BME280;35432;43.566;1.398;2023-04-08T01:23:38;99950.44;;;10.24;53.50
49541;BME280;35432;43.566;1.398;2023-04-08T01:26:05;99960.19;;;10.14;53.61
49541;BME280;35432;43.566;1.398;2023-04-08T01:28:32;99958.44;;;10.15;52.88
49541;BME280;35432;43.566;1.398;2023-04-08T01:31:00;99952.31;;;10.13;53.25
49541;BME280;35432;43.566;1.398;2023-04-08T01:33:27;99953.22;;;10.09;53.59
49541;BME280;35432;43.566;1.398;2023-04-08T01:35:53;99951.53;;;10.00;53.80
49541;BME280;35432;43.566;1.398;2023-04-08T01:38:22;99952.41;;;9.97;53.64
49541;BME280;35432;43.566;1.398;2023-04-08T01:40:50;99947.13;;;9.97;53.95
49541;BME280;35432;43.566;1.398;2023-04-08T01:43:17;99951.56;;;9.94;53.71
49541;BME280;35432;43.566;1.398;2023-04-08T01:45:44;99947.19;;;9.93;53.61
49541;BME280;35432;43.566;1.398;2023-04-08T01:48:12;99950.72;;;9.87;53.91
49541;BME280;35432;43.566;1.398;2023-04-08T01:50:40;99948.13;;;9.84;54.07
49541;BME280;35432;43.566;1.398;2023-04-08T01:53:08;99957.72;;;9.86;54.05
49541;BME280;35432;43.566;1.398;2023-04-08T01:55:34;99955.13;;;9.83;54.15
49541;BME280;35432;43.566;1.398;2023-04-08T01:58:01;99958.63;;;9.84;53.68
49541;BME280;35432;43.566;1.398;2023-04-08T02:00:30;99959.53;;;9.83;53.92
49541;BME280;35432;43.566;1.398;2023-04-08T02:02:57;99968.31;;;9.82;54.19
49541;BME280;35432;43.566;1.398;2023-04-08T02:05:23;99959.50;;;9.84;54.00
49541;BME280;35432;43.566;1.398;2023-04-08T02:07:49;99970.06;;;9.76;54.38
49541;BME280;35432;43.566;1.398;2023-04-08T02:10:15;99969.22;;;9.73;54.00
49541;BME280;35432;43.566;1.398;2023-04-08T02:12:41;99969.25;;;9.63;54.29
49541;BME280;35432;43.566;1.398;2023-04-08T02:15:08;99957.88;;;9.63;54.29
49541;BME280;35432;43.566;1.398;2023-04-08T02:17:44;99964.91;;;9.59;55.17
49541;BME280;35432;43.566;1.398;2023-04-08T02:23:06;99967.53;;;9.58;55.35
49541;BME280;35432;43.566;1.398;2023-04-08T02:25:35;99977.19;;;9.59;54.34
49541;BME280;35432;43.566;1.398;2023-04-08T02:28:03;99963.16;;;9.60;54.39
49541;BME280;35432;43.566;1.398;2023-04-08T02:30:31;99964.91;;;9.61;54.38
49541;BME280;35432;43.566;1.398;2023-04-08T02:32:59;99960.50;;;9.58;54.40
49541;BME280;35432;43.566;1.398;2023-04-08T02:35:26;99970.16;;;9.56;54.44
49541;BME280;35432;43.566;1.398;2023-04-08T02:37:52;99967.56;;;9.53;54.68
49541;BME280;35432;43.566;1.398;2023-04-08T02:42:50;99974.63;;;9.42;54.65
49541;BME280;35432;43.566;1.398;2023-04-08T02:45:16;99969.34;;;9.39;54.58
49541;BME280;35432;43.566;1.398;2023-04-08T02:47:42;99972.88;;;9.34;55.02
49541;BME280;35432;43.566;1.398;2023-04-08T02:50:07;99979.03;;;9.32;54.83
49541;BME280;35432;43.566;1.398;2023-04-08T02:52:33;99974.66;;;9.29;55.00
49541;BME280;35432;43.566;1.398;2023-04-08T02:54:58;99978.16;;;9.27;55.13
49541;BME280;35432;43.566;1.398;2023-04-08T02:57:23;99966.81;;;9.22;55.08
49541;BME280;35432;43.566;1.398;2023-04-08T02:59:49;99971.19;;;9.19;55.35
49541;BME280;35432;43.566;1.398;2023-04-08T03:02:14;99977.34;;;9.12;55.21
49541;BME280;35432;43.566;1.398;2023-04-08T03:04:40;99966.84;;;9.09;55.36
49541;BME280;35432;43.566;1.398;2023-04-08T03:07:05;99972.13;;;9.06;55.14
49541;BME280;35432;43.566;1.398;2023-04-08T03:09:31;99972.09;;;9.03;55.46
49541;BME280;35432;43.566;1.398;2023-04-08T03:11:56;99971.25;;;8.99;55.65
49541;BME280;35432;43.566;1.398;2023-04-08T03:14:21;99966.88;;;8.97;55.47
49541;BME280;35432;43.566;1.398;2023-04-08T03:16:47;99970.38;;;8.96;55.47
49541;BME280;35432;43.566;1.398;2023-04-08T03:19:12;99983.53;;;8.97;55.44
49541;BME280;35432;43.566;1.398;2023-04-08T03:21:38;99980.88;;;8.97;55.42
49541;BME280;35432;43.566;1.398;2023-04-08T03:24:03;99986.16;;;8.94;55.70
49541;BME280;35432;43.566;1.398;2023-04-08T03:26:29;99980.88;;;8.93;55.56
49541;BME280;35432;43.566;1.398;2023-04-08T03:28:54;99970.41;;;8.86;55.53
49541;BME280;35432;43.566;1.398;2023-04-08T03:31:20;99987.94;;;8.81;55.68
49541;BME280;35432;43.566;1.398;2023-04-08T03:33:46;99980.03;;;8.78;55.79
49541;BME280;35432;43.566;1.398;2023-04-08T03:36:11;99983.53;;;8.74;55.62
49541;BME280;35432;43.566;1.398;2023-04-08T03:38:36;99976.56;;;8.71;55.89
49541;BME280;35432;43.566;1.398;2023-04-08T03:41:02;99980.03;;;8.67;55.97
49541;BME280;35432;43.566;1.398;2023-04-08T03:43:27;99979.19;;;8.64;56.05
49541;BME280;35432;43.566;1.398;2023-04-08T03:45:52;99987.94;;;8.63;56.11
49541;BME280;35432;43.566;1.398;2023-04-08T03:48:18;99987.91;;;8.61;56.24
49541;BME280;35432;43.566;1.398;2023-04-08T03:50:43;99983.56;;;8.57;56.02
49541;BME280;35432;43.566;1.398;2023-04-08T03:53:09;99982.69;;;8.52;56.34
49541;BME280;35432;43.566;1.398;2023-04-08T03:55:36;99981.81;;;8.50;56.43
49541;BME280;35432;43.566;1.398;2023-04-08T03:58:01;99980.03;;;8.47;56.10
49541;BME280;35432;43.566;1.398;2023-04-08T04:00:27;99980.91;;;8.43;56.32
49541;BME280;35432;43.566;1.398;2023-04-08T04:02:52;99980.03;;;8.41;56.37
49541;BME280;35432;43.566;1.398;2023-04-08T04:05:19;99969.53;;;8.38;56.19
49541;BME280;35432;43.566;1.398;2023-04-08T04:07:44;99969.53;;;8.35;56.14
49541;BME280;35432;43.566;1.398;2023-04-08T04:10:10;99976.53;;;8.31;56.11
49541;BME280;35432;43.566;1.398;2023-04-08T04:12:36;99970.41;;;8.24;56.06
49541;BME280;35432;43.566;1.398;2023-04-08T04:15:01;99972.16;;;8.22;56.23
49541;BME280;35432;43.566;1.398;2023-04-08T04:17:27;99973.00;;;8.16;56.17
49541;BME280;35432;43.566;1.398;2023-04-08T04:19:52;99966.88;;;8.07;56.37
49541;BME280;35432;43.566;1.398;2023-04-08T04:22:17;99971.25;;;8.01;56.29
49541;BME280;35432;43.566;1.398;2023-04-08T04:24:47;99973.84;;;7.98;57.04
49541;BME280;35432;43.566;1.398;2023-04-08T04:27:13;99977.34;;;7.97;56.73
49541;BME280;35432;43.566;1.398;2023-04-08T04:29:38;99972.97;;;7.93;56.54
49541;BME280;35432;43.566;1.398;2023-04-08T04:32:04;99972.97;;;7.90;56.59
49541;BME280;35432;43.566;1.398;2023-04-08T04:34:30;99972.97;;;7.87;56.90
49541;BME280;35432;43.566;1.398;2023-04-08T04:36:56;99969.47;;;7.85;57.20
49541;BME280;35432;43.566;1.398;2023-04-08T04:39:21;99981.69;;;7.83;57.18
49541;BME280;35432;43.566;1.398;2023-04-08T04:41:47;99988.69;;;7.79;56.67
49541;BME280;35432;43.566;1.398;2023-04-08T04:44:13;99991.28;;;7.78;56.83
49541;BME280;35432;43.566;1.398;2023-04-08T04:46:39;99986.03;;;7.74;56.57
49541;BME280;35432;43.566;1.398;2023-04-08T04:49:04;99988.66;;;7.74;57.37
49541;BME280;35432;43.566;1.398;2023-04-08T04:51:30;99999.13;;;7.70;57.32
49541;BME280;35432;43.566;1.398;2023-04-08T04:53:57;99996.50;;;7.68;57.19
49541;BME280;35432;43.566;1.398;2023-04-08T04:56:22;99999.13;;;7.68;57.53
49541;BME280;35432;43.566;1.398;2023-04-08T04:58:48;100002.63;;;7.67;57.45
49541;BME280;35432;43.566;1.398;2023-04-08T05:01:13;100001.75;;;7.68;57.54
49541;BME280;35432;43.566;1.398;2023-04-08T05:03:38;99999.13;;;7.67;57.38
49541;BME280;35432;43.566;1.398;2023-04-08T05:06:04;99994.75;;;7.67;56.84
49541;BME280;35432;43.566;1.398;2023-04-08T05:08:29;99992.13;;;7.64;56.56
49541;BME280;35432;43.566;1.398;2023-04-08T05:10:55;99990.34;;;7.57;57.51
49541;BME280;35432;43.566;1.398;2023-04-08T05:13:20;99999.91;;;7.49;57.13
49541;BME280;35432;43.566;1.398;2023-04-08T05:15:46;99992.03;;;7.44;57.08
49541;BME280;35432;43.566;1.398;2023-04-08T05:18:11;100007.75;;;7.44;57.57
49541;BME280;35432;43.566;1.398;2023-04-08T05:20:37;100008.63;;;7.41;57.33
49541;BME280;35432;43.566;1.398;2023-04-08T05:23:02;100005.13;;;7.38;57.57
49541;BME280;35432;43.566;1.398;2023-04-08T05:25:29;100005.06;;;7.33;57.72
49541;BME280;35432;43.566;1.398;2023-04-08T05:27:54;100010.31;;;7.30;57.42
49541;BME280;35432;43.566;1.398;2023-04-08T05:30:20;100016.44;;;7.27;57.07
49541;BME280;35432;43.566;1.398;2023-04-08T05:32:45;100012.06;;;7.26;57.76
49541;BME280;35432;43.566;1.398;2023-04-08T05:35:11;100020.75;;;7.24;58.02
49541;BME280;35432;43.566;1.398;2023-04-08T05:37:36;100034.72;;;7.23;57.85
49541;BME280;35432;43.566;1.398;2023-04-08T05:40:02;100037.34;;;7.23;57.65
49541;BME280;35432;43.566;1.398;2023-04-08T05:42:27;100045.19;;;7.23;57.69
49541;BME280;35432;43.566;1.398;2023-04-08T05:44:53;100051.25;;;7.12;58.83
49541;BME280;35432;43.566;1.398;2023-04-08T05:47:18;100059.09;;;7.11;58.16
49541;BME280;35432;43.566;1.398;2023-04-08T05:49:44;100069.59;;;7.12;58.33
49541;BME280;35432;43.566;1.398;2023-04-08T05:52:09;100064.38;;;7.15;58.07
49541;BME280;35432;43.566;1.398;2023-04-08T05:54:34;100072.28;;;7.28;57.82
49541;BME280;35432;43.566;1.398;2023-04-08T05:57:00;100078.56;;;7.55;57.52
49541;BME280;35432;43.566;1.398;2023-04-08T05:59:25;100079.59;;;7.91;56.26
49541;BME280;35432;43.566;1.398;2023-04-08T06:01:50;100080.53;;;8.10;55.80
49541;BME280;35432;43.566;1.398;2023-04-08T06:04:16;100078.81;;;8.29;55.26
49541;BME280;35432;43.566;1.398;2023-04-08T06:06:42;100079.75;;;8.48;55.21
49541;BME280;35432;43.566;1.398;2023-04-08T06:09:07;100085.94;;;8.68;54.60
49541;BME280;35432;43.566;1.398;2023-04-08T06:11:34;100094.69;;;8.92;54.34
49541;BME280;35432;43.566;1.398;2023-04-08T06:13:59;100083.28;;;9.17;54.34
49541;BME280;35432;43.566;1.398;2023-04-08T06:16:25;100087.63;;;9.40;53.90
49541;BME280;35432;43.566;1.398;2023-04-08T06:18:50;100083.19;;;9.62;53.40
49541;BME280;35432;43.566;1.398;2023-04-08T06:21:16;100081.34;;;9.83;53.30
49541;BME280;35432;43.566;1.398;2023-04-08T06:23:41;100080.41;;;10.04;52.67
49541;BME280;35432;43.566;1.398;2023-04-08T06:26:08;100078.53;;;10.22;52.34
49541;BME280;35432;43.566;1.398;2023-04-08T06:28:33;100076.78;;;10.27;52.50
49541;BME280;35432;43.566;1.398;2023-04-08T06:30:59;100076.69;;;10.40;52.45
49541;BME280;35432;43.566;1.398;2023-04-08T06:33:24;100075.72;;;10.59;52.04
49541;BME280;35432;43.566;1.398;2023-04-08T06:35:50;100080.84;;;10.76;51.74
49541;BME280;35432;43.566;1.398;2023-04-08T06:38:15;100080.78;;;10.86;51.85
49541;BME280;35432;43.566;1.398;2023-04-08T06:40:41;100083.28;;;11.01;51.67
49541;BME280;35432;43.566;1.398;2023-04-08T06:43:06;100076.94;;;11.21;51.43
49541;BME280;35432;43.566;1.398;2023-04-08T06:45:35;100088.19;;;11.40;51.27
49541;BME280;35432;43.566;1.398;2023-04-08T06:48:00;100088.00;;;11.59;51.69
49541;BME280;35432;43.566;1.398;2023-04-08T06:50:26;100090.44;;;11.76;51.29
49541;BME280;35432;43.566;1.398;2023-04-08T06:52:51;100098.22;;;11.88;51.20
49541;BME280;35432;43.566;1.398;2023-04-08T06:55:17;100096.38;;;11.92;50.96
49541;BME280;35432;43.566;1.398;2023-04-08T06:57:42;100095.38;;;12.07;51.08
49541;BME280;35432;43.566;1.398;2023-04-08T07:00:08;100091.72;;;12.17;51.17
49541;BME280;35432;43.566;1.398;2023-04-08T07:02:33;100090.81;;;12.20;50.83
49541;BME280;35432;43.566;1.398;2023-04-08T07:04:59;100090.63;;;12.32;50.65
49541;BME280;35432;43.566;1.398;2023-04-08T07:07:24;100102.06;;;12.33;51.01
49541;BME280;35432;43.566;1.398;2023-04-08T07:09:50;100094.19;;;12.28;50.87
49541;BME280;35432;43.566;1.398;2023-04-08T07:12:16;100096.63;;;12.44;51.00
49541;BME280;35432;43.566;1.398;2023-04-08T07:14:41;100103.25;;;12.73;50.59
49541;BME280;35432;43.566;1.398;2023-04-08T07:17:06;100101.06;;;13.00;50.06
49541;BME280;35432;43.566;1.398;2023-04-08T07:19:32;100099.72;;;13.26;49.96
49541;BME280;35432;43.566;1.398;2023-04-08T07:21:57;100099.31;;;13.49;49.53
49541;BME280;35432;43.566;1.398;2023-04-08T07:24:23;100102.38;;;13.76;49.31
49541;BME280;35432;43.566;1.398;2023-04-08T07:26:48;100102.81;;;13.97;49.09
49541;BME280;35432;43.566;1.398;2023-04-08T07:29:14;100102.50;;;14.12;48.31
49541;BME280;35432;43.566;1.398;2023-04-08T07:31:42;100102.41;;;14.15;48.33
49541;BME280;35432;43.566;1.398;2023-04-08T07:34:07;100111.03;;;14.27;47.91
49541;BME280;35432;43.566;1.398;2023-04-08T07:36:32;100117.03;;;14.33;47.88
49541;BME280;35432;43.566;1.398;2023-04-08T07:38:58;100117.03;;;14.33;47.73
49541;BME280;35432;43.566;1.398;2023-04-08T07:41:23;100108.13;;;14.38;47.97
49541;BME280;35432;43.566;1.398;2023-04-08T07:43:48;100114.88;;;14.51;47.64
49541;BME280;35432;43.566;1.398;2023-04-08T07:46:14;100119.88;;;14.65;47.22
49541;BME280;35432;43.566;1.398;2023-04-08T07:48:39;100122.84;;;14.90;46.94
49541;BME280;35432;43.566;1.398;2023-04-08T07:51:06;100125.81;;;15.14;46.84
49541;BME280;35432;43.566;1.398;2023-04-08T07:53:32;100119.94;;;15.36;46.53
49541;BME280;35432;43.566;1.398;2023-04-08T07:55:58;100123.69;;;15.62;46.07
49541;BME280;35432;43.566;1.398;2023-04-08T07:58:24;100124.13;;;15.78;45.27
49541;BME280;35432;43.566;1.398;2023-04-08T08:00:50;100127.34;;;15.91;45.00
49541;BME280;35432;43.566;1.398;2023-04-08T08:03:16;100130.91;;;15.90;45.07
49541;BME280;35432;43.566;1.398;2023-04-08T08:05:41;100125.97;;;16.07;45.03
49541;BME280;35432;43.566;1.398;2023-04-08T08:08:07;100126.81;;;16.40;43.96
49541;BME280;35432;43.566;1.398;2023-04-08T08:10:32;100139.03;;;16.74;43.26
49541;BME280;35432;43.566;1.398;2023-04-08T08:12:58;100136.75;;;17.18;42.59
49541;BME280;35432;43.566;1.398;2023-04-08T08:15:23;100136.19;;;17.61;41.92
49541;BME280;35432;43.566;1.398;2023-04-08T08:17:49;100129.47;;;18.01;41.35
49541;BME280;35432;43.566;1.398;2023-04-08T08:20:15;100128.72;;;18.20;40.46
49541;BME280;35432;43.566;1.398;2023-04-08T08:22:40;100129.78;;;18.40;40.27
49541;BME280;35432;43.566;1.398;2023-04-08T08:25:06;100128.84;;;18.41;40.13
49541;BME280;35432;43.566;1.398;2023-04-08T08:27:33;100126.88;;;18.46;39.86
49541;BME280;35432;43.566;1.398;2023-04-08T08:29:59;100131.38;;;18.44;39.39
49541;BME280;35432;43.566;1.398;2023-04-08T08:32:24;100126.19;;;18.41;39.36
49541;BME280;35432;43.566;1.398;2023-04-08T08:34:49;100132.22;;;18.46;39.34
49541;BME280;35432;43.566;1.398;2023-04-08T08:37:15;100127.69;;;18.48;39.45
49541;BME280;35432;43.566;1.398;2023-04-08T08:39:40;100121.47;;;18.47;38.58
49541;BME280;35432;43.566;1.398;2023-04-08T08:42:06;100134.59;;;18.30;39.12
49541;BME280;35432;43.566;1.398;2023-04-08T08:44:31;100128.53;;;18.26;39.14
49541;BME280;35432;43.566;1.398;2023-04-08T08:46:57;100132.56;;;18.13;38.92
49541;BME280;35432;43.566;1.398;2023-04-08T08:49:22;100147.34;;;18.21;39.23
49541;BME280;35432;43.566;1.398;2023-04-08T08:51:48;100140.13;;;18.25;38.88
49541;BME280;35432;43.566;1.398;2023-04-08T08:54:15;100145.19;;;18.31;38.61
49541;BME280;35432;43.566;1.398;2023-04-08T08:56:41;100141.03;;;18.24;38.95
49541;BME280;35432;43.566;1.398;2023-04-08T08:59:08;100139.53;;;18.17;38.65
49541;BME280;35432;43.566;1.398;2023-04-08T09:01:34;100138.31;;;18.26;38.79
49541;BME280;35432;43.566;1.398;2023-04-08T09:04:08;100141.09;;;18.22;38.62
49541;BME280;35432;43.566;1.398;2023-04-08T09:06:35;100136.53;;;18.26;38.11
49541;BME280;35432;43.566;1.398;2023-04-08T09:09:01;100137.03;;;18.36;38.05
49541;BME280;35432;43.566;1.398;2023-04-08T09:11:28;100135.06;;;18.41;37.77
49541;BME280;35432;43.566;1.398;2023-04-08T09:13:55;100137.19;;;18.55;37.59
49541;BME280;35432;43.566;1.398;2023-04-08T09:16:21;100136.81;;;18.64;37.67
49541;BME280;35432;43.566;1.398;2023-04-08T09:18:48;100136.16;;;18.82;37.71
49541;BME280;35432;43.566;1.398;2023-04-08T09:21:15;100139.75;;;19.03;37.87
49541;BME280;35432;43.566;1.398;2023-04-08T09:26:11;100135.22;;;19.05;37.04
49541;BME280;35432;43.566;1.398;2023-04-08T09:28:39;100130.56;;;19.10;36.55
49541;BME280;35432;43.566;1.398;2023-04-08T09:31:22;100136.69;;;19.12;36.55
49541;BME280;35432;43.566;1.398;2023-04-08T09:33:55;100140.78;;;19.21;35.47
49541;BME280;35432;43.566;1.398;2023-04-08T09:36:21;100136.34;;;19.42;36.25
49541;BME280;35432;43.566;1.398;2023-04-08T09:38:47;100136.88;;;19.50;35.84
49541;BME280;35432;43.566;1.398;2023-04-08T09:41:14;100140.88;;;19.61;35.44
49541;BME280;35432;43.566;1.398;2023-04-08T09:43:42;100135.66;;;19.78;35.64
49541;BME280;35432;43.566;1.398;2023-04-08T09:46:13;100132.91;;;20.01;35.08
49541;BME280;35432;43.566;1.398;2023-04-08T09:48:45;100134.53;;;20.05;34.60
49541;BME280;35432;43.566;1.398;2023-04-08T09:51:14;100139.00;;;20.04;34.70
49541;BME280;35432;43.566;1.398;2023-04-08T09:53:45;100137.06;;;20.08;34.10
49541;BME280;35432;43.566;1.398;2023-04-08T09:56:12;100136.13;;;20.09;34.00
49541;BME280;35432;43.566;1.398;2023-04-08T09:58:44;100133.25;;;20.14;34.04
49541;BME280;35432;43.566;1.398;2023-04-08T10:01:13;100131.91;;;20.22;33.96
49541;BME280;35432;43.566;1.398;2023-04-08T10:03:47;100134.19;;;20.32;33.54
49541;BME280;35432;43.566;1.398;2023-04-08T10:06:14;100133.38;;;20.49;34.27
49541;BME280;35432;43.566;1.398;2023-04-08T10:08:41;100138.28;;;20.58;34.17
49541;BME280;35432;43.566;1.398;2023-04-08T10:11:07;100129.72;;;20.69;34.20
49541;BME280;35432;43.566;1.398;2023-04-08T10:13:32;100136.25;;;20.83;33.25
49541;BME280;35432;43.566;1.398;2023-04-08T10:16:20;100137.25;;;20.80;32.90
49541;BME280;35432;43.566;1.398;2023-04-08T10:18:51;100132.13;;;20.94;32.72
49541;BME280;35432;43.566;1.398;2023-04-08T10:21:38;100128.88;;;20.88;33.35
49541;BME280;35432;43.566;1.398;2023-04-08T10:24:09;100127.06;;;21.06;32.55
49541;BME280;35432;43.566;1.398;2023-04-08T10:26:41;100130.25;;;21.14;32.84
49541;BME280;35432;43.566;1.398;2023-04-08T10:31:42;100137.81;;;21.59;32.79
49541;BME280;35432;43.566;1.398;2023-04-08T10:34:21;100138.13;;;21.52;31.93
49541;BME280;35432;43.566;1.398;2023-04-08T10:36:48;100136.06;;;21.58;32.39
49541;BME280;35432;43.566;1.398;2023-04-08T10:39:15;100125.19;;;21.78;32.19
49541;BME280;35432;43.566;1.398;2023-04-08T10:42:00;100127.81;;;21.80;32.17
49541;BME280;35432;43.566;1.398;2023-04-08T10:44:26;100120.69;;;21.97;31.88
49541;BME280;35432;43.566;1.398;2023-04-08T10:46:53;100125.31;;;21.93;31.61
49541;BME280;35432;43.566;1.398;2023-04-08T10:49:18;100119.78;;;21.96;31.51
49541;BME280;35432;43.566;1.398;2023-04-08T10:51:45;100134.13;;;22.13;31.30
49541;BME280;35432;43.566;1.398;2023-04-08T10:54:13;100123.38;;;22.13;31.06
49541;BME280;35432;43.566;1.398;2023-04-08T10:56:49;100124.59;;;22.23;30.73
49541;BME280;35432;43.566;1.398;2023-04-08T10:59:26;100122.03;;;22.37;30.78
49541;BME280;35432;43.566;1.398;2023-04-08T11:01:51;100118.00;;;22.46;30.91
49541;BME280;35432;43.566;1.398;2023-04-08T11:04:17;100112.81;;;22.59;29.89
49541;BME280;35432;43.566;1.398;2023-04-08T11:06:45;100112.63;;;22.62;30.22
49541;BME280;35432;43.566;1.398;2023-04-08T11:09:12;100118.94;;;22.61;30.45
49541;BME280;35432;43.566;1.398;2023-04-08T11:11:39;100101.28;;;22.57;30.74
49541;BME280;35432;43.566;1.398;2023-04-08T11:14:05;100105.06;;;22.53;30.62
49541;BME280;35432;43.566;1.398;2023-04-08T11:16:31;100107.69;;;22.55;30.20
49541;BME280;35432;43.566;1.398;2023-04-08T11:18:57;100105.59;;;22.60;30.96
49541;BME280;35432;43.566;1.398;2023-04-08T11:21:23;100105.16;;;22.68;30.33
49541;BME280;35432;43.566;1.398;2023-04-08T11:23:50;100097.38;;;22.79;29.43
49541;BME280;35432;43.566;1.398;2023-04-08T11:26:17;100098.38;;;22.92;28.80
49541;BME280;35432;43.566;1.398;2023-04-08T11:28:44;100097.66;;;23.05;29.25
49541;BME280;35432;43.566;1.398;2023-04-08T11:31:11;100100.66;;;23.31;28.92
49541;BME280;35432;43.566;1.398;2023-04-08T11:33:37;100084.94;;;23.54;28.17
49541;BME280;35432;43.566;1.398;2023-04-08T11:36:11;100091.38;;;23.65;28.12
49541;BME280;35432;43.566;1.398;2023-04-08T11:38:38;100097.44;;;23.84;28.08
49541;BME280;35432;43.566;1.398;2023-04-08T11:41:03;100085.25;;;23.92;27.34
49541;BME280;35432;43.566;1.398;2023-04-08T11:43:29;100088.00;;;23.91;27.46
49541;BME280;35432;43.566;1.398;2023-04-08T11:45:54;100086.88;;;24.10;27.64
